sensor_id;sensor_type;location;lat;lon;timestamp;pressure;altitude;pressure_sealevel;temperature;humidity
78198;BME280;67472;51.554;7.812;2023-12-28T00:01:53;100091.47;;;9.63;100.00
78198;BME280;67472;51.554;7.812;2023-12-28T00:04:39;100093.94;;;9.64;100.00
78198;BME280;67472;51.554;7.812;2023-12-28T00:07:26;100101.44;;;9.59;100.00
78198;BME280;67472;51.554;7.812;2023-12-28T00:10:12;100107.66;;;9.58;100.00
78198;BME280;67472;51.554;7.812;2023-12-28T00:13:02;100110.72;;;9.63;100.00
78198;BME280;67472;51.554;7.812;2023-12-28T00:15:49;100101.00;;;9.54;100.00
78198;BME280;67472;51.554;7.812;2023-12-28T00:18:35;100109.72;;;9.45;100.00
78198;BME280;67472;51.554;7.812;2023-12-28T00:21:22;100123.13;;;9.33;100.00
78198;BME280;67472;51.554;7.812;2023-12-28T00:24:08;100130.97;;;9.23;100.00
78198;BME280;67472;51.554;7.812;2023-12-28T00:26:55;100124.94;;;9.12;100.00
78198;BME280;67472;51.554;7.812;2023-12-28T00:29:43;100135.13;;;9.16;100.00
78198;BME280;67472;51.554;7.812;2023-12-28T00:32:33;100171.00;;;9.17;100.00
78198;BME280;67472;51.554;7.812;2023-12-28T00:35:20;100170.66;;;9.01;100.00
78198;BME280;67472;51.554;7.812;2023-12-28T00:38:08;100169.44;;;9.05;100.00
78198;BME280;67472;51.554;7.812;2023-12-28T00:40:54;100171.50;;;9.01;100.00
78198;BME280;67472;51.554;7.812;2023-12-28T00:43:42;100176.88;;;9.00;100.00
78198;BME280;67472;51.554;7.812;2023-12-28T00:46:30;100166.66;;;9.06;100.00
78198;BME280;67472;51.554;7.812;2023-12-28T00:49:21;100189.94;;;9.01;100.00
78198;BME280;67472;51.554;7.812;2023-12-28T00:52:10;100188.22;;;8.91;100.00
78198;BME280;67472;51.554;7.812;2023-12-28T00:54:59;100185.84;;;8.88;100.00
78198;BME280;67472;51.554;7.812;2023-12-28T00:57:48;100198.28;;;8.86;100.00
78198;BME280;67472;51.554;7.812;2023-12-28T01:00:34;100206.56;;;8.81;100.00
78198;BME280;67472;51.554;7.812;2023-12-28T01:03:23;100219.03;;;8.79;100.00
78198;BME280;67472;51.554;7.812;2023-12-28T01:06:11;100209.13;;;8.92;100.00
78198;BME280;67472;51.554;7.812;2023-12-28T01:08:57;100206.94;;;8.97;100.00
78198;BME280;67472;51.554;7.812;2023-12-28T01:11:44;100217.47;;;8.97;100.00
78198;BME280;67472;51.554;7.812;2023-12-28T01:14:30;100220.00;;;8.99;100.00
78198;BME280;67472;51.554;7.812;2023-12-28T01:17:17;100228.34;;;9.04;100.00
78198;BME280;67472;51.554;7.812;2023-12-28T01:20:08;100216.47;;;9.09;100.00
78198;BME280;67472;51.554;7.812;2023-12-28T01:22:56;100226.16;;;9.09;100.00
78198;BME280;67472;51.554;7.812;2023-12-28T01:25:45;100227.44;;;9.15;100.00
78198;BME280;67472;51.554;7.812;2023-12-28T01:28:31;100216.91;;;9.15;100.00
78198;BME280;67472;51.554;7.812;2023-12-28T01:31:19;100220.81;;;9.20;100.00
78198;BME280;67472;51.554;7.812;2023-12-28T01:34:05;100235.31;;;9.26;100.00
78198;BME280;67472;51.554;7.812;2023-12-28T01:36:56;100242.94;;;9.29;100.00
78198;BME280;67472;51.554;7.812;2023-12-28T01:39:44;100238.41;;;9.40;100.00
78198;BME280;67472;51.554;7.812;2023-12-28T01:42:31;100236.50;;;9.42;100.00
78198;BME280;67472;51.554;7.812;2023-12-28T01:45:18;100240.16;;;9.51;100.00
78198;BME280;67472;51.554;7.812;2023-12-28T01:48:07;100234.22;;;9.58;100.00
78198;BME280;67472;51.554;7.812;2023-12-28T01:50:54;100234.03;;;9.50;100.00
78198;BME280;67472;51.554;7.812;2023-12-28T01:53:42;100237.63;;;9.49;100.00
78198;BME280;67472;51.554;7.812;2023-12-28T01:56:33;100236.69;;;9.50;100.00
78198;BME280;67472;51.554;7.812;2023-12-28T01:59:20;100232.38;;;9.49;100.00
78198;BME280;67472;51.554;7.812;2023-12-28T02:02:08;100242.78;;;9.51;100.00
78198;BME280;67472;51.554;7.812;2023-12-28T02:04:57;100231.34;;;9.41;100.00
78198;BME280;67472;51.554;7.812;2023-12-28T02:07:44;100232.84;;;9.54;100.00
78198;BME280;67472;51.554;7.812;2023-12-28T02:10:33;100219.94;;;9.61;100.00
78198;BME280;67472;51.554;7.812;2023-12-28T02:13:19;100218.09;;;9.52;100.00
78198;BME280;67472;51.554;7.812;2023-12-28T02:16:11;100244.94;;;9.66;100.00
78198;BME280;67472;51.554;7.812;2023-12-28T02:19:02;100230.53;;;9.71;100.00
78198;BME280;67472;51.554;7.812;2023-12-28T02:21:50;100231.75;;;9.66;100.00
78198;BME280;67472;51.554;7.812;2023-12-28T02:25:03;100238.50;;;9.80;100.00
78198;BME280;67472;51.554;7.812;2023-12-28T02:27:50;100246.50;;;9.69;100.00
78198;BME280;67472;51.554;7.812;2023-12-28T02:30:37;100238.72;;;9.68;100.00
78198;BME280;67472;51.554;7.812;2023-12-28T02:33:30;100251.31;;;9.64;100.00
78198;BME280;67472;51.554;7.812;2023-12-28T02:36:23;100261.03;;;9.63;100.00
78198;BME280;67472;51.554;7.812;2023-12-28T02:39:11;100257.50;;;9.74;100.00
78198;BME280;67472;51.554;7.812;2023-12-28T02:42:04;100256.06;;;9.70;100.00
78198;BME280;67472;51.554;7.812;2023-12-28T02:44:57;100256.72;;;9.62;100.00
78198;BME280;67472;51.554;7.812;2023-12-28T02:47:43;100258.28;;;9.65;100.00
78198;BME280;67472;51.554;7.812;2023-12-28T02:50:30;100252.81;;;9.57;100.00
78198;BME280;67472;51.554;7.812;2023-12-28T02:53:17;100254.22;;;9.61;100.00
78198;BME280;67472;51.554;7.812;2023-12-28T02:56:06;100252.84;;;9.66;100.00
78198;BME280;67472;51.554;7.812;2023-12-28T02:58:54;100240.13;;;9.72;100.00
78198;BME280;67472;51.554;7.812;2023-12-28T03:01:41;100252.69;;;9.58;100.00
78198;BME280;67472;51.554;7.812;2023-12-28T03:04:27;100252.47;;;9.71;100.00
78198;BME280;67472;51.554;7.812;2023-12-28T03:07:13;100253.69;;;9.67;100.00
78198;BME280;67472;51.554;7.812;2023-12-28T03:10:03;100254.69;;;9.66;100.00
78198;BME280;67472;51.554;7.812;2023-12-28T03:12:49;100258.44;;;9.73;100.00
78198;BME280;67472;51.554;7.812;2023-12-28T03:15:37;100243.59;;;9.72;100.00
78198;BME280;67472;51.554;7.812;2023-12-28T03:18:24;100252.03;;;9.66;100.00
78198;BME280;67472;51.554;7.812;2023-12-28T03:21:11;100242.19;;;9.68;100.00
78198;BME280;67472;51.554;7.812;2023-12-28T03:23:58;100234.44;;;9.76;100.00
78198;BME280;67472;51.554;7.812;2023-12-28T03:26:48;100212.88;;;9.61;100.00
78198;BME280;67472;51.554;7.812;2023-12-28T03:29:34;100219.41;;;9.67;100.00
78198;BME280;67472;51.554;7.812;2023-12-28T03:32:22;100219.56;;;9.75;100.00
78198;BME280;67472;51.554;7.812;2023-12-28T03:35:09;100226.69;;;9.75;100.00
78198;BME280;67472;51.554;7.812;2023-12-28T03:37:56;100222.09;;;9.77;100.00
78198;BME280;67472;51.554;7.812;2023-12-28T03:40:42;100214.50;;;9.83;100.00
78198;BME280;67472;51.554;7.812;2023-12-28T03:43:31;100220.72;;;9.82;100.00
78198;BME280;67472;51.554;7.812;2023-12-28T03:46:19;100215.59;;;9.90;100.00
78198;BME280;67472;51.554;7.812;2023-12-28T03:49:07;100226.25;;;9.79;100.00
78198;BME280;67472;51.554;7.812;2023-12-28T03:51:56;100228.91;;;9.79;100.00
78198;BME280;67472;51.554;7.812;2023-12-28T03:54:45;100231.44;;;9.81;100.00
78198;BME280;67472;51.554;7.812;2023-12-28T03:57:33;100230.69;;;9.79;100.00
78198;BME280;67472;51.554;7.812;2023-12-28T04:00:20;100233.78;;;9.84;100.00
78198;BME280;67472;51.554;7.812;2023-12-28T04:03:08;100230.69;;;9.79;100.00
78198;BME280;67472;51.554;7.812;2023-12-28T04:05:56;100225.03;;;9.83;100.00
78198;BME280;67472;51.554;7.812;2023-12-28T04:08:46;100242.25;;;9.87;100.00
78198;BME280;67472;51.554;7.812;2023-12-28T04:11:35;100234.06;;;9.90;100.00
78198;BME280;67472;51.554;7.812;2023-12-28T04:14:25;100223.63;;;9.79;100.00
78198;BME280;67472;51.554;7.812;2023-12-28T04:17:11;100209.47;;;9.80;100.00
78198;BME280;67472;51.554;7.812;2023-12-28T04:19:58;100200.31;;;9.75;100.00
78198;BME280;67472;51.554;7.812;2023-12-28T04:22:46;100209.91;;;9.85;100.00
78198;BME280;67472;51.554;7.812;2023-12-28T04:25:35;100205.47;;;9.86;100.00
78198;BME280;67472;51.554;7.812;2023-12-28T04:28:22;100213.69;;;9.92;100.00
78198;BME280;67472;51.554;7.812;2023-12-28T04:31:10;100207.44;;;9.93;100.00
78198;BME280;67472;51.554;7.812;2023-12-28T04:33:56;100186.03;;;9.87;100.00
78198;BME280;67472;51.554;7.812;2023-12-28T04:36:42;100190.22;;;9.89;100.00
78198;BME280;67472;51.554;7.812;2023-12-28T04:39:31;100187.03;;;9.95;100.00
78198;BME280;67472;51.554;7.812;2023-12-28T04:42:16;100191.44;;;9.85;100.00
78198;BME280;67472;51.554;7.812;2023-12-28T04:45:05;100188.56;;;9.98;100.00
78198;BME280;67472;51.554;7.812;2023-12-28T04:47:52;100185.91;;;9.88;100.00
78198;BME280;67472;51.554;7.812;2023-12-28T04:50:38;100177.84;;;9.90;100.00
78198;BME280;67472;51.554;7.812;2023-12-28T04:53:24;100172.72;;;9.88;100.00
78198;BME280;67472;51.554;7.812;2023-12-28T04:56:11;100170.50;;;9.93;100.00
78198;BME280;67472;51.554;7.812;2023-12-28T04:58:57;100176.63;;;9.94;100.00
78198;BME280;67472;51.554;7.812;2023-12-28T05:01:45;100180.66;;;10.07;100.00
78198;BME280;67472;51.554;7.812;2023-12-28T05:04:32;100182.03;;;9.92;100.00
78198;BME280;67472;51.554;7.812;2023-12-28T05:07:18;100180.94;;;9.95;100.00
78198;BME280;67472;51.554;7.812;2023-12-28T05:10:06;100206.31;;;9.96;100.00
78198;BME280;67472;51.554;7.812;2023-12-28T05:12:54;100207.56;;;9.92;100.00
78198;BME280;67472;51.554;7.812;2023-12-28T05:15:41;100213.31;;;10.06;100.00
78198;BME280;67472;51.554;7.812;2023-12-28T05:18:27;100221.78;;;10.10;100.00
78198;BME280;67472;51.554;7.812;2023-12-28T05:21:16;100225.75;;;10.15;100.00
78198;BME280;67472;51.554;7.812;2023-12-28T05:24:02;100229.00;;;10.08;100.00
78198;BME280;67472;51.554;7.812;2023-12-28T05:26:51;100233.44;;;10.07;100.00
78198;BME280;67472;51.554;7.812;2023-12-28T05:29:39;100239.28;;;10.11;100.00
78198;BME280;67472;51.554;7.812;2023-12-28T05:44:11;100235.91;;;10.30;100.00
78198;BME280;67472;51.554;7.812;2023-12-28T05:46:59;100229.06;;;10.17;100.00
78198;BME280;67472;51.554;7.812;2023-12-28T05:49:46;100242.13;;;10.19;100.00
78198;BME280;67472;51.554;7.812;2023-12-28T05:52:32;100236.16;;;10.17;100.00
78198;BME280;67472;51.554;7.812;2023-12-28T05:55:19;100236.56;;;10.22;100.00
78198;BME280;67472;51.554;7.812;2023-12-28T05:58:13;100243.09;;;10.28;100.00
78198;BME280;67472;51.554;7.812;2023-12-28T06:01:11;100230.75;;;10.28;100.00
78198;BME280;67472;51.554;7.812;2023-12-28T06:04:19;100245.47;;;10.21;100.00
78198;BME280;67472;51.554;7.812;2023-12-28T06:07:22;100247.56;;;10.27;100.00
78198;BME280;67472;51.554;7.812;2023-12-28T06:14:21;100264.41;;;10.36;100.00
78198;BME280;67472;51.554;7.812;2023-12-28T06:17:56;100261.63;;;10.37;100.00
78198;BME280;67472;51.554;7.812;2023-12-28T06:21:21;100252.00;;;10.36;100.00
78198;BME280;67472;51.554;7.812;2023-12-28T06:32:25;100264.22;;;10.28;100.00
78198;BME280;67472;51.554;7.812;2023-12-28T06:35:35;100266.59;;;10.31;100.00
78198;BME280;67472;51.554;7.812;2023-12-28T06:39:51;100266.31;;;10.34;100.00
78198;BME280;67472;51.554;7.812;2023-12-28T06:46:59;100264.75;;;10.21;100.00
78198;BME280;67472;51.554;7.812;2023-12-28T06:51:10;100261.03;;;10.24;100.00
78198;BME280;67472;51.554;7.812;2023-12-28T06:54:14;100272.28;;;10.26;100.00
78198;BME280;67472;51.554;7.812;2023-12-28T07:01:43;100275.47;;;10.20;100.00
78198;BME280;67472;51.554;7.812;2023-12-28T07:04:44;100271.78;;;10.11;100.00
78198;BME280;67472;51.554;7.812;2023-12-28T07:07:30;100269.63;;;10.16;100.00
78198;BME280;67472;51.554;7.812;2023-12-28T07:10:17;100277.06;;;10.11;100.00
78198;BME280;67472;51.554;7.812;2023-12-28T07:13:08;100275.16;;;10.13;100.00
78198;BME280;67472;51.554;7.812;2023-12-28T07:16:25;100267.56;;;9.99;100.00
78198;BME280;67472;51.554;7.812;2023-12-28T07:19:15;100270.16;;;9.90;100.00
78198;BME280;67472;51.554;7.812;2023-12-28T07:22:02;100272.38;;;9.85;100.00
78198;BME280;67472;51.554;7.812;2023-12-28T07:24:48;100279.44;;;9.75;100.00
78198;BME280;67472;51.554;7.812;2023-12-28T07:27:34;100283.44;;;9.69;100.00
78198;BME280;67472;51.554;7.812;2023-12-28T07:30:21;100282.44;;;9.70;100.00
78198;BME280;67472;51.554;7.812;2023-12-28T07:33:12;100290.50;;;9.69;100.00
78198;BME280;67472;51.554;7.812;2023-12-28T07:36:30;100288.16;;;9.75;100.00
78198;BME280;67472;51.554;7.812;2023-12-28T07:47:25;100300.00;;;9.81;100.00
78198;BME280;67472;51.554;7.812;2023-12-28T07:50:14;100293.16;;;9.78;100.00
78198;BME280;67472;51.554;7.812;2023-12-28T07:53:03;100298.59;;;9.77;100.00
78198;BME280;67472;51.554;7.812;2023-12-28T07:56:00;100303.72;;;9.78;100.00
78198;BME280;67472;51.554;7.812;2023-12-28T07:58:47;100309.25;;;9.75;100.00
78198;BME280;67472;51.554;7.812;2023-12-28T08:01:34;100308.28;;;9.76;100.00
78198;BME280;67472;51.554;7.812;2023-12-28T08:04:20;100304.56;;;9.79;100.00
78198;BME280;67472;51.554;7.812;2023-12-28T08:16:30;100328.28;;;9.79;100.00
78198;BME280;67472;51.554;7.812;2023-12-28T08:24:05;100330.56;;;9.83;100.00
78198;BME280;67472;51.554;7.812;2023-12-28T08:26:51;100337.63;;;9.83;100.00
78198;BME280;67472;51.554;7.812;2023-12-28T08:29:39;100330.84;;;9.90;100.00
78198;BME280;67472;51.554;7.812;2023-12-28T08:32:28;100331.94;;;9.87;100.00
78198;BME280;67472;51.554;7.812;2023-12-28T08:36:18;100325.78;;;9.98;100.00
78198;BME280;67472;51.554;7.812;2023-12-28T08:39:32;100326.88;;;9.95;100.00
78198;BME280;67472;51.554;7.812;2023-12-28T08:42:19;100327.13;;;9.92;100.00
78198;BME280;67472;51.554;7.812;2023-12-28T08:57:52;100343.97;;;10.01;100.00
78198;BME280;67472;51.554;7.812;2023-12-28T09:01:00;100341.13;;;9.93;100.00
78198;BME280;67472;51.554;7.812;2023-12-28T09:03:47;100352.28;;;9.96;100.00
78198;BME280;67472;51.554;7.812;2023-12-28T09:06:34;100347.84;;;9.97;100.00
78198;BME280;67472;51.554;7.812;2023-12-28T09:09:20;100359.59;;;10.13;100.00
78198;BME280;67472;51.554;7.812;2023-12-28T09:12:09;100365.06;;;10.21;100.00
78198;BME280;67472;51.554;7.812;2023-12-28T09:14:58;100362.63;;;10.30;100.00
78198;BME280;67472;51.554;7.812;2023-12-28T09:17:45;100370.28;;;10.42;100.00
78198;BME280;67472;51.554;7.812;2023-12-28T09:20:31;100362.41;;;10.52;100.00
78198;BME280;67472;51.554;7.812;2023-12-28T09:23:19;100365.66;;;10.65;100.00
78198;BME280;67472;51.554;7.812;2023-12-28T09:26:07;100355.91;;;10.65;100.00
78198;BME280;67472;51.554;7.812;2023-12-28T09:29:13;100362.34;;;10.72;100.00
78198;BME280;67472;51.554;7.812;2023-12-28T09:32:15;100360.50;;;10.63;100.00
78198;BME280;67472;51.554;7.812;2023-12-28T09:35:03;100369.00;;;10.67;100.00
78198;BME280;67472;51.554;7.812;2023-12-28T09:37:50;100369.25;;;10.64;100.00
78198;BME280;67472;51.554;7.812;2023-12-28T09:40:36;100367.91;;;10.79;100.00
78198;BME280;67472;51.554;7.812;2023-12-28T09:43:24;100369.28;;;10.83;100.00
78198;BME280;67472;51.554;7.812;2023-12-28T09:46:14;100372.22;;;10.80;100.00
78198;BME280;67472;51.554;7.812;2023-12-28T09:49:03;100365.00;;;10.82;100.00
78198;BME280;67472;51.554;7.812;2023-12-28T09:51:50;100361.91;;;10.77;100.00
78198;BME280;67472;51.554;7.812;2023-12-28T09:54:38;100345.66;;;10.82;100.00
78198;BME280;67472;51.554;7.812;2023-12-28T09:57:25;100353.19;;;10.76;100.00
78198;BME280;67472;51.554;7.812;2023-12-28T10:00:12;100346.66;;;10.90;100.00
78198;BME280;67472;51.554;7.812;2023-12-28T10:02:59;100339.03;;;10.97;100.00
78198;BME280;67472;51.554;7.812;2023-12-28T10:05:49;100347.38;;;11.02;100.00
78198;BME280;67472;51.554;7.812;2023-12-28T10:08:36;100360.00;;;10.98;100.00
78198;BME280;67472;51.554;7.812;2023-12-28T10:11:23;100349.47;;;11.08;100.00
78198;BME280;67472;51.554;7.812;2023-12-28T10:14:11;100357.50;;;11.06;100.00
78198;BME280;67472;51.554;7.812;2023-12-28T10:17:00;100357.53;;;11.16;100.00
78198;BME280;67472;51.554;7.812;2023-12-28T10:19:47;100341.38;;;11.09;100.00
78198;BME280;67472;51.554;7.812;2023-12-28T10:22:36;100346.38;;;11.12;100.00
78198;BME280;67472;51.554;7.812;2023-12-28T10:25:23;100346.78;;;11.17;100.00
78198;BME280;67472;51.554;7.812;2023-12-28T10:28:10;100326.25;;;11.11;100.00
78198;BME280;67472;51.554;7.812;2023-12-28T10:30:57;100335.56;;;11.25;100.00
78198;BME280;67472;51.554;7.812;2023-12-28T10:33:43;100336.66;;;11.22;100.00
78198;BME280;67472;51.554;7.812;2023-12-28T10:36:31;100330.66;;;11.30;100.00
78198;BME280;67472;51.554;7.812;2023-12-28T10:39:23;100327.63;;;11.34;100.00
78198;BME280;67472;51.554;7.812;2023-12-28T10:42:11;100329.00;;;11.39;100.00
78198;BME280;67472;51.554;7.812;2023-12-28T10:45:03;100317.44;;;11.40;100.00
78198;BME280;67472;51.554;7.812;2023-12-28T10:47:56;100320.66;;;11.33;100.00
78198;BME280;67472;51.554;7.812;2023-12-28T10:50:47;100318.97;;;11.42;100.00
78198;BME280;67472;51.554;7.812;2023-12-28T10:53:37;100317.44;;;11.49;100.00
78198;BME280;67472;51.554;7.812;2023-12-28T10:56:33;100315.75;;;11.58;100.00
78198;BME280;67472;51.554;7.812;2023-12-28T10:59:27;100313.81;;;11.50;100.00
78198;BME280;67472;51.554;7.812;2023-12-28T11:02:18;100302.94;;;11.44;100.00
78198;BME280;67472;51.554;7.812;2023-12-28T11:05:07;100303.09;;;11.52;100.00
78198;BME280;67472;51.554;7.812;2023-12-28T11:07:54;100306.16;;;11.57;100.00
78198;BME280;67472;51.554;7.812;2023-12-28T11:10:43;100317.28;;;11.51;100.00
78198;BME280;67472;51.554;7.812;2023-12-28T11:13:32;100308.91;;;11.55;100.00
78198;BME280;67472;51.554;7.812;2023-12-28T11:16:18;100313.81;;;11.60;100.00
78198;BME280;67472;51.554;7.812;2023-12-28T11:19:06;100309.34;;;11.51;100.00
78198;BME280;67472;51.554;7.812;2023-12-28T11:21:53;100311.84;;;11.52;100.00
78198;BME280;67472;51.554;7.812;2023-12-28T11:24:41;100295.97;;;11.62;100.00
78198;BME280;67472;51.554;7.812;2023-12-28T11:27:33;100297.50;;;11.74;100.00
78198;BME280;67472;51.554;7.812;2023-12-28T11:30:25;100300.31;;;11.72;100.00
78198;BME280;67472;51.554;7.812;2023-12-28T11:33:12;100295.56;;;11.66;100.00
78198;BME280;67472;51.554;7.812;2023-12-28T11:36:00;100291.94;;;11.77;100.00
78198;BME280;67472;51.554;7.812;2023-12-28T11:38:49;100285.22;;;11.82;100.00
78198;BME280;67472;51.554;7.812;2023-12-28T11:41:37;100293.03;;;11.84;100.00
78198;BME280;67472;51.554;7.812;2023-12-28T11:44:26;100283.69;;;11.80;100.00
78198;BME280;67472;51.554;7.812;2023-12-28T11:47:16;100281.59;;;11.83;100.00
78198;BME280;67472;51.554;7.812;2023-12-28T11:50:06;100281.16;;;11.88;100.00
78198;BME280;67472;51.554;7.812;2023-12-28T11:52:54;100287.00;;;11.92;100.00
78198;BME280;67472;51.554;7.812;2023-12-28T11:55:41;100282.66;;;12.00;100.00
78198;BME280;67472;51.554;7.812;2023-12-28T11:58:28;100283.38;;;11.93;100.00
78198;BME280;67472;51.554;7.812;2023-12-28T12:01:15;100269.16;;;11.94;100.00
78198;BME280;67472;51.554;7.812;2023-12-28T12:04:06;100270.81;;;12.04;100.00
78198;BME280;67472;51.554;7.812;2023-12-28T12:06:52;100265.09;;;11.99;100.00
78198;BME280;67472;51.554;7.812;2023-12-28T12:09:39;100246.56;;;11.99;100.00
78198;BME280;67472;51.554;7.812;2023-12-28T12:12:25;100270.72;;;12.14;100.00
78198;BME280;67472;51.554;7.812;2023-12-28T12:15:12;100260.22;;;12.04;100.00
78198;BME280;67472;51.554;7.812;2023-12-28T12:18:01;100267.03;;;12.07;100.00
78198;BME280;67472;51.554;7.812;2023-12-28T12:20:50;100255.72;;;12.05;100.00
78198;BME280;67472;51.554;7.812;2023-12-28T12:23:40;100248.50;;;12.07;100.00
78198;BME280;67472;51.554;7.812;2023-12-28T12:26:27;100251.28;;;12.05;100.00
78198;BME280;67472;51.554;7.812;2023-12-28T12:29:16;100253.72;;;12.16;100.00
78198;BME280;67472;51.554;7.812;2023-12-28T12:32:03;100252.16;;;12.23;100.00
78198;BME280;67472;51.554;7.812;2023-12-28T12:34:50;100251.06;;;12.16;100.00
78198;BME280;67472;51.554;7.812;2023-12-28T12:37:40;100247.44;;;12.17;100.00
78198;BME280;67472;51.554;7.812;2023-12-28T12:40:26;100254.84;;;12.14;100.00
78198;BME280;67472;51.554;7.812;2023-12-28T12:43:12;100238.66;;;12.17;100.00
78198;BME280;67472;51.554;7.812;2023-12-28T12:46:02;100237.31;;;12.13;100.00
78198;BME280;67472;51.554;7.812;2023-12-28T12:48:54;100243.53;;;12.21;100.00
78198;BME280;67472;51.554;7.812;2023-12-28T12:51:41;100242.63;;;12.13;100.00
78198;BME280;67472;51.554;7.812;2023-12-28T12:54:32;100231.81;;;12.24;100.00
78198;BME280;67472;51.554;7.812;2023-12-28T12:57:18;100230.97;;;12.23;100.00
78198;BME280;67472;51.554;7.812;2023-12-28T13:00:06;100220.47;;;12.31;100.00
78198;BME280;67472;51.554;7.812;2023-12-28T13:02:54;100206.00;;;12.26;100.00
78198;BME280;67472;51.554;7.812;2023-12-28T13:05:41;100204.19;;;12.26;100.00
78198;BME280;67472;51.554;7.812;2023-12-28T13:08:30;100198.28;;;12.15;100.00
78198;BME280;67472;51.554;7.812;2023-12-28T13:11:17;100203.06;;;12.29;100.00
78198;BME280;67472;51.554;7.812;2023-12-28T13:14:08;100199.88;;;12.25;100.00
78198;BME280;67472;51.554;7.812;2023-12-28T13:16:55;100195.50;;;12.34;100.00
78198;BME280;67472;51.554;7.812;2023-12-28T13:19:44;100205.16;;;12.25;100.00
78198;BME280;67472;51.554;7.812;2023-12-28T13:22:29;100206.47;;;12.21;100.00
78198;BME280;67472;51.554;7.812;2023-12-28T13:25:16;100197.22;;;12.25;100.00
78198;BME280;67472;51.554;7.812;2023-12-28T13:28:04;100198.66;;;12.20;100.00
78198;BME280;67472;51.554;7.812;2023-12-28T13:30:50;100208.88;;;12.15;100.00
78198;BME280;67472;51.554;7.812;2023-12-28T13:33:41;100205.84;;;12.10;100.00
78198;BME280;67472;51.554;7.812;2023-12-28T13:36:27;100197.59;;;12.13;100.00
78198;BME280;67472;51.554;7.812;2023-12-28T13:39:14;100193.41;;;12.10;100.00
78198;BME280;67472;51.554;7.812;2023-12-28T13:42:02;100211.75;;;12.21;100.00
78198;BME280;67472;51.554;7.812;2023-12-28T13:44:50;100217.34;;;12.18;100.00
78198;BME280;67472;51.554;7.812;2023-12-28T13:47:36;100217.25;;;12.10;100.00
78198;BME280;67472;51.554;7.812;2023-12-28T13:50:22;100226.84;;;12.11;100.00
78198;BME280;67472;51.554;7.812;2023-12-28T13:53:08;100213.16;;;11.98;100.00
78198;BME280;67472;51.554;7.812;2023-12-28T13:55:55;100217.31;;;12.01;100.00
78198;BME280;67472;51.554;7.812;2023-12-28T13:58:42;100213.63;;;12.11;100.00
78198;BME280;67472;51.554;7.812;2023-12-28T14:01:30;100201.13;;;12.04;100.00
78198;BME280;67472;51.554;7.812;2023-12-28T14:04:16;100201.44;;;12.01;100.00
78198;BME280;67472;51.554;7.812;2023-12-28T14:07:03;100200.25;;;11.85;100.00
78198;BME280;67472;51.554;7.812;2023-12-28T14:09:51;100208.00;;;11.97;100.00
78198;BME280;67472;51.554;7.812;2023-12-28T14:12:38;100197.41;;;11.97;100.00
78198;BME280;67472;51.554;7.812;2023-12-28T14:15:24;100210.88;;;11.76;100.00
78198;BME280;67472;51.554;7.812;2023-12-28T14:18:12;100196.22;;;11.81;100.00
78198;BME280;67472;51.554;7.812;2023-12-28T14:21:04;100211.13;;;11.82;100.00
78198;BME280;67472;51.554;7.812;2023-12-28T14:23:57;100206.97;;;11.80;100.00
78198;BME280;67472;51.554;7.812;2023-12-28T14:26:44;100209.50;;;11.72;100.00
78198;BME280;67472;51.554;7.812;2023-12-28T14:29:31;100204.75;;;11.66;100.00
78198;BME280;67472;51.554;7.812;2023-12-28T14:32:22;100204.78;;;11.56;100.00
78198;BME280;67472;51.554;7.812;2023-12-28T14:35:12;100211.50;;;11.51;100.00
78198;BME280;67472;51.554;7.812;2023-12-28T14:38:00;100216.78;;;11.51;100.00
78198;BME280;67472;51.554;7.812;2023-12-28T14:40:47;100212.34;;;11.51;100.00
78198;BME280;67472;51.554;7.812;2023-12-28T14:43:36;100217.75;;;11.50;100.00
78198;BME280;67472;51.554;7.812;2023-12-28T14:46:26;100225.97;;;11.47;100.00
78198;BME280;67472;51.554;7.812;2023-12-28T14:49:15;100212.63;;;11.39;100.00
78198;BME280;67472;51.554;7.812;2023-12-28T14:52:06;100219.88;;;11.37;100.00
78198;BME280;67472;51.554;7.812;2023-12-28T14:54:53;100216.56;;;11.34;100.00
78198;BME280;67472;51.554;7.812;2023-12-28T14:57:39;100216.69;;;11.33;100.00
78198;BME280;67472;51.554;7.812;2023-12-28T15:00:27;100207.63;;;11.35;100.00
78198;BME280;67472;51.554;7.812;2023-12-28T15:03:16;100199.03;;;11.33;100.00
78198;BME280;67472;51.554;7.812;2023-12-28T15:06:02;100206.41;;;11.30;100.00
78198;BME280;67472;51.554;7.812;2023-12-28T15:08:50;100200.28;;;11.29;100.00
78198;BME280;67472;51.554;7.812;2023-12-28T15:11:37;100201.84;;;11.22;100.00
78198;BME280;67472;51.554;7.812;2023-12-28T15:14:24;100202.69;;;11.13;100.00
78198;BME280;67472;51.554;7.812;2023-12-28T15:17:13;100197.81;;;11.09;100.00
78198;BME280;67472;51.554;7.812;2023-12-28T15:20:02;100199.63;;;11.08;100.00
78198;BME280;67472;51.554;7.812;2023-12-28T15:22:52;100198.25;;;11.04;100.00
78198;BME280;67472;51.554;7.812;2023-12-28T15:25:43;100203.25;;;10.98;100.00
78198;BME280;67472;51.554;7.812;2023-12-28T15:28:29;100202.41;;;10.97;100.00
78198;BME280;67472;51.554;7.812;2023-12-28T15:31:15;100207.16;;;10.94;100.00
78198;BME280;67472;51.554;7.812;2023-12-28T15:34:02;100208.13;;;10.83;100.00
78198;BME280;67472;51.554;7.812;2023-12-28T15:36:48;100206.19;;;10.75;100.00
78198;BME280;67472;51.554;7.812;2023-12-28T15:39:35;100202.16;;;10.81;100.00
78198;BME280;67472;51.554;7.812;2023-12-28T15:42:23;100203.41;;;10.77;100.00
78198;BME280;67472;51.554;7.812;2023-12-28T15:45:10;100204.69;;;10.73;100.00
78198;BME280;67472;51.554;7.812;2023-12-28T15:47:57;100204.38;;;10.66;100.00
78198;BME280;67472;51.554;7.812;2023-12-28T15:50:43;100210.25;;;10.70;100.00